createdAt,value
2022-09-12T00:00:46.912Z,17.16
2022-09-12T00:03:14.638Z,17.24
2022-09-12T00:05:43.168Z,17.24
2022-09-12T00:08:11.305Z,17.16
2022-09-12T00:10:40.150Z,17.14
2022-09-12T00:13:09.882Z,17.13
2022-09-12T00:15:40.196Z,17.01
2022-09-12T00:18:09.293Z,17.02
2022-09-12T00:20:36.850Z,17.01
2022-09-12T00:23:04.527Z,17.01
2022-09-12T00:25:32.008Z,17.02
2022-09-12T00:27:59.509Z,17.10
2022-09-12T00:30:28.485Z,17.14
2022-09-12T00:32:56.022Z,17.12
2022-09-12T00:35:23.543Z,17.07
2022-09-12T00:37:53.478Z,16.92
2022-09-12T00:40:23.061Z,17.03
2022-09-12T00:42:50.555Z,17.07
2022-09-12T00:45:28.213Z,17.12
2022-09-12T00:47:59.798Z,17.03
2022-09-12T00:50:27.733Z,17.13
2022-09-12T00:52:58.855Z,17.11
2022-09-12T00:55:29.497Z,17.18
2022-09-12T00:58:00.344Z,17.06
2022-09-12T01:00:29.375Z,17.00
2022-09-12T01:03:02.957Z,16.79
2022-09-12T01:05:35.206Z,16.65
2022-09-12T01:08:04.544Z,16.74
2022-09-12T01:10:34.029Z,16.74
2022-09-12T01:13:01.874Z,16.77
2022-09-12T01:15:29.399Z,16.72
2022-09-12T01:18:11.032Z,16.74
2022-09-12T01:20:55.806Z,16.81
2022-09-12T01:24:09.028Z,16.78
2022-09-12T01:26:57.474Z,16.69
2022-09-12T01:29:42.033Z,16.62
2022-09-12T01:32:20.776Z,16.63
2022-09-12T01:34:53.179Z,16.61
2022-09-12T01:37:33.243Z,16.58
2022-09-12T01:40:05.805Z,16.49
2022-09-12T01:42:41.001Z,16.56
2022-09-12T01:45:15.949Z,16.55
2022-09-12T01:47:49.943Z,16.52
2022-09-12T01:50:20.420Z,16.49
2022-09-12T01:52:52.749Z,16.52
2022-09-12T01:55:25.901Z,16.54
2022-09-12T01:57:58.898Z,16.52
2022-09-12T02:00:27.181Z,16.53
2022-09-12T02:03:02.808Z,16.51
2022-09-12T02:05:34.414Z,16.44
2022-09-12T02:08:08.021Z,16.41
2022-09-12T02:10:42.635Z,16.33
2022-09-12T02:13:16.530Z,16.27
2022-09-12T02:15:49.070Z,16.30
2022-09-12T02:18:20.237Z,16.25
2022-09-12T02:20:49.929Z,16.20
2022-09-12T02:23:21.970Z,16.25
2022-09-12T02:25:53.283Z,16.21
2022-09-12T02:28:25.913Z,16.24
2022-09-12T02:31:00.605Z,16.19
2022-09-12T02:33:39.106Z,16.17
2022-09-12T02:36:21.875Z,16.20
2022-09-12T02:38:49.785Z,16.11
2022-09-12T02:41:21.333Z,16.07
2022-09-12T02:43:51.319Z,16.17
2022-09-12T02:46:23.187Z,16.10
2022-09-12T02:48:52.060Z,16.16
2022-09-12T02:51:23.486Z,16.08
2022-09-12T02:53:51.619Z,16.07
2022-09-12T02:56:24.641Z,16.10
2022-09-12T02:58:53.065Z,16.13
2022-09-12T03:01:34.887Z,16.24
2022-09-12T03:04:22.121Z,16.28
2022-09-12T03:06:59.425Z,16.27
2022-09-12T03:09:37.485Z,16.30
2022-09-12T03:12:18.099Z,16.39
2022-09-12T03:15:03.693Z,16.36
2022-09-12T03:17:42.222Z,16.41
2022-09-12T03:20:16.813Z,16.38
2022-09-12T03:22:53.913Z,16.23
2022-09-12T03:25:25.962Z,16.29
2022-09-12T03:27:59.586Z,16.35
2022-09-12T03:30:27.671Z,16.34
2022-09-12T03:32:56.154Z,16.38
2022-09-12T03:35:25.894Z,16.33
2022-09-12T03:37:54.137Z,16.17
2022-09-12T03:40:21.986Z,16.19
2022-09-12T03:42:49.600Z,16.11
2022-09-12T03:45:18.278Z,16.08
2022-09-12T03:47:45.792Z,16.16
2022-09-12T03:50:13.311Z,16.16
2022-09-12T03:52:42.129Z,16.21
2022-09-12T03:55:10.060Z,16.17
2022-09-12T03:57:37.629Z,16.28
2022-09-12T04:00:06.850Z,16.26
2022-09-12T04:02:34.419Z,16.21
2022-09-12T04:05:02.132Z,16.23
2022-09-12T04:07:30.057Z,16.22
2022-09-12T04:09:58.957Z,16.26
2022-09-12T04:12:26.459Z,16.19
2022-09-12T04:14:54.009Z,16.24
2022-09-12T04:17:21.520Z,16.21
2022-09-12T04:19:49.047Z,16.27
2022-09-12T04:22:16.521Z,16.31
2022-09-12T04:24:44.036Z,16.32
2022-09-12T04:27:13.016Z,16.25
2022-09-12T04:29:40.853Z,16.27
2022-09-12T04:32:08.367Z,16.27
2022-09-12T04:34:35.950Z,16.38
2022-09-12T04:37:03.481Z,16.36
2022-09-12T04:39:31.329Z,16.40
2022-09-12T04:41:58.833Z,16.32
2022-09-12T04:44:27.696Z,16.34
2022-09-12T04:46:55.180Z,16.40
2022-09-12T04:49:22.697Z,16.44
2022-09-12T04:51:50.484Z,16.56
2022-09-12T04:54:19.824Z,16.64
2022-09-12T04:56:49.663Z,16.66
2022-09-12T04:59:19.718Z,16.67
2022-09-12T05:01:48.898Z,16.71
2022-09-12T05:04:16.903Z,16.71
2022-09-12T05:06:46.876Z,16.71
2022-09-12T05:09:15.785Z,16.64
2022-09-12T05:14:33.943Z,16.73
2022-09-12T05:17:03.526Z,16.84
2022-09-12T05:19:32.288Z,16.83
2022-09-12T05:22:00.473Z,16.75
2022-09-12T05:24:28.296Z,16.80
2022-09-12T05:26:56.139Z,16.82
2022-09-12T05:29:25.022Z,16.87
2022-09-12T05:31:53.354Z,16.96
2022-09-12T05:34:23.263Z,16.84
2022-09-12T05:36:50.843Z,16.97
2022-09-12T05:39:18.520Z,17.16
2022-09-12T05:41:46.044Z,17.17
2022-09-12T05:44:15.004Z,17.06
2022-09-12T05:46:45.081Z,17.26
2022-09-12T05:49:14.428Z,17.10
2022-09-12T05:51:46.189Z,17.12
2022-09-12T05:54:15.980Z,17.10
2022-09-12T05:56:44.970Z,17.12
2022-09-12T05:59:14.516Z,17.33
2022-09-12T06:01:43.078Z,17.45
2022-09-12T06:04:11.142Z,17.22
2022-09-12T06:06:42.421Z,17.38
2022-09-12T06:09:12.007Z,17.55
2022-09-12T06:11:41.758Z,17.42
2022-09-12T06:14:11.287Z,17.28
2022-09-12T06:16:40.104Z,17.58
2022-09-12T06:19:09.423Z,17.78
2022-09-12T06:21:37.718Z,17.88
2022-09-12T06:24:05.666Z,17.87
2022-09-12T06:26:34.630Z,18.03
2022-09-12T06:29:03.169Z,18.03
2022-09-12T06:31:33.079Z,18.10
2022-09-12T06:34:02.292Z,18.18
2022-09-12T06:36:31.777Z,18.22
2022-09-12T06:39:00.921Z,18.15
2022-09-12T06:41:29.411Z,18.07
2022-09-12T06:43:59.584Z,18.01
2022-09-12T06:46:27.908Z,18.12
2022-09-12T06:48:59.394Z,18.06
2022-09-12T06:51:27.745Z,18.36
2022-09-12T06:53:56.625Z,18.41
2022-09-12T06:56:28.813Z,18.49
2022-09-12T06:58:59.400Z,18.60
2022-09-12T07:01:28.838Z,18.59
2022-09-12T07:03:58.783Z,18.72
2022-09-12T07:06:31.608Z,18.83
2022-09-12T07:09:00.184Z,18.85
2022-09-12T07:11:30.418Z,18.96
2022-09-12T07:14:00.762Z,18.90
2022-09-12T07:16:28.739Z,18.98
2022-09-12T07:18:58.294Z,19.05
2022-09-12T07:21:26.174Z,19.10
2022-09-12T07:23:55.227Z,19.21
2022-09-12T07:26:22.795Z,19.28
2022-09-12T07:28:53.939Z,19.33
2022-09-12T07:31:24.732Z,19.36
2022-09-12T07:33:54.795Z,19.45
2022-09-12T07:36:24.545Z,19.47
2022-09-12T07:38:57.417Z,19.51
2022-09-12T07:41:27.455Z,19.59
2022-09-12T07:43:56.798Z,19.64
2022-09-12T07:46:26.532Z,19.67
2022-09-12T07:48:55.602Z,19.77
2022-09-12T07:51:24.702Z,19.84
2022-09-12T07:53:52.628Z,19.84
2022-09-12T07:56:21.086Z,19.90
2022-09-12T07:58:48.630Z,19.91
2022-09-12T08:01:18.400Z,19.96
2022-09-12T08:03:49.042Z,19.97
2022-09-12T08:06:19.920Z,19.94
2022-09-12T08:08:48.205Z,19.96
2022-09-12T08:11:17.791Z,20.10
2022-09-12T08:13:46.982Z,20.02
2022-09-12T08:16:18.737Z,20.06
2022-09-12T08:18:48.274Z,20.15
2022-09-12T08:21:18.216Z,20.10
2022-09-12T08:23:46.502Z,20.24
2022-09-12T08:26:14.357Z,20.18
2022-09-12T08:28:46.572Z,20.24
2022-09-12T08:31:16.300Z,20.20
2022-09-12T08:33:43.882Z,20.25
2022-09-12T08:36:14.981Z,20.34
2022-09-12T08:38:44.490Z,20.35
2022-09-12T08:41:22.733Z,20.44
2022-09-12T08:44:06.983Z,20.47
2022-09-12T08:46:39.569Z,20.50
2022-09-12T08:49:11.810Z,20.59
2022-09-12T08:51:41.583Z,20.50
2022-09-12T08:54:20.313Z,20.64
2022-09-12T08:56:49.097Z,20.50
2022-09-12T08:59:17.164Z,20.61
2022-09-12T09:01:46.219Z,20.71
2022-09-12T09:04:29.966Z,20.73
2022-09-12T09:07:16.125Z,20.77
2022-09-12T09:09:59.113Z,20.78
2022-09-12T09:12:37.021Z,20.87
2022-09-12T09:15:21.372Z,20.99
2022-09-12T09:17:51.756Z,21.02
2022-09-12T09:20:28.802Z,21.07
2022-09-12T09:23:02.933Z,20.96
2022-09-12T09:25:41.899Z,21.08
2022-09-12T09:28:17.651Z,21.05
2022-09-12T09:30:45.932Z,21.02
2022-09-12T09:33:22.287Z,21.10
2022-09-12T09:35:56.483Z,21.16
2022-09-12T09:38:34.793Z,21.05
2022-09-12T09:41:14.803Z,21.00
2022-09-12T09:43:42.358Z,20.99
2022-09-12T09:46:10.748Z,21.15
2022-09-12T09:48:41.997Z,20.97
2022-09-12T09:51:10.316Z,21.13
2022-09-12T09:53:44.342Z,21.17
2022-09-12T09:56:23.153Z,21.36
2022-09-12T09:58:50.884Z,21.41
2022-09-12T10:01:19.911Z,21.42
2022-09-12T10:03:52.709Z,21.51
2022-09-12T10:06:32.289Z,21.72
2022-09-12T10:09:09.475Z,21.79
2022-09-12T10:11:41.517Z,21.67
2022-09-12T10:14:38.369Z,21.72
2022-09-12T10:17:25.371Z,21.86
2022-09-12T10:20:04.855Z,22.02
2022-09-12T10:22:40.963Z,21.83
2022-09-12T10:25:13.846Z,21.90
2022-09-12T10:27:42.931Z,21.96
2022-09-12T10:30:19.102Z,21.88
2022-09-12T10:32:50.523Z,22.01
2022-09-12T10:35:20.904Z,22.11
2022-09-12T10:37:55.323Z,22.27
2022-09-12T10:40:27.405Z,22.13
2022-09-12T10:42:57.237Z,22.22
2022-09-12T10:45:28.926Z,22.36
2022-09-12T10:47:59.111Z,22.27
2022-09-12T10:50:31.013Z,22.40
2022-09-12T10:53:17.695Z,22.69
2022-09-12T10:56:02.825Z,22.66
2022-09-12T10:58:40.498Z,22.82
2022-09-12T11:01:16.491Z,23.00
2022-09-12T11:04:10.854Z,23.16
2022-09-12T11:06:47.145Z,23.26
2022-09-12T11:09:22.800Z,23.11
2022-09-12T11:12:02.374Z,22.96
2022-09-12T11:14:46.735Z,23.07
2022-09-12T11:17:26.308Z,23.23
2022-09-12T11:20:09.300Z,23.38
2022-09-12T11:22:52.346Z,23.47
2022-09-12T11:25:29.821Z,23.59
2022-09-12T11:28:22.679Z,23.75
2022-09-12T11:31:09.402Z,23.94
2022-09-12T11:33:43.346Z,23.87
2022-09-12T11:36:28.932Z,23.74
2022-09-12T11:39:04.243Z,24.08
2022-09-12T11:41:35.666Z,23.99
2022-09-12T11:44:16.279Z,23.93
2022-09-12T11:46:48.752Z,24.23
2022-09-12T11:49:26.942Z,24.28
2022-09-12T11:51:58.862Z,24.11
2022-09-12T11:54:33.621Z,24.33
2022-09-12T11:57:12.281Z,24.39
2022-09-12T11:59:47.093Z,24.49
2022-09-12T12:02:21.022Z,24.41
2022-09-12T12:05:04.222Z,24.34
2022-09-12T12:07:45.369Z,24.54
2022-09-12T12:10:26.190Z,24.53
2022-09-12T12:12:56.034Z,24.53
2022-09-12T12:15:26.527Z,24.59
2022-09-12T12:18:06.067Z,24.70
2022-09-12T12:20:33.842Z,24.72
2022-09-12T12:23:01.889Z,24.67
2022-09-12T12:25:52.861Z,24.71
2022-09-12T12:29:00.133Z,24.74
2022-09-12T12:31:29.043Z,24.75
2022-09-12T12:34:06.323Z,24.53
2022-09-12T12:36:42.984Z,24.73
2022-09-12T12:39:44.082Z,24.91
2022-09-12T12:42:14.844Z,24.96
2022-09-12T12:44:50.094Z,24.96
2022-09-12T12:47:23.158Z,25.10
2022-09-12T12:49:52.924Z,25.08
2022-09-12T12:52:21.113Z,25.07
2022-09-12T12:54:55.113Z,25.22
2022-09-12T12:57:56.877Z,25.29
2022-09-12T13:00:34.255Z,25.42
2022-09-12T13:03:11.553Z,25.35
2022-09-12T13:05:41.501Z,25.54
2022-09-12T13:08:12.801Z,25.59
2022-09-12T13:10:49.646Z,25.57
2022-09-12T13:13:25.790Z,25.64
2022-09-12T13:15:53.776Z,25.64
2022-09-12T13:18:27.789Z,25.59
2022-09-12T13:21:07.055Z,25.62
2022-09-12T13:23:35.163Z,25.62
2022-09-12T13:26:03.483Z,25.72
2022-09-12T13:28:32.432Z,25.54
2022-09-12T13:31:03.869Z,25.78
2022-09-12T13:33:37.500Z,25.83
2022-09-12T13:36:32.243Z,25.66
2022-09-12T13:39:13.346Z,25.69
2022-09-12T13:41:56.071Z,25.70
2022-09-12T13:44:25.438Z,25.77
2022-09-12T13:46:53.785Z,25.91
2022-09-12T13:49:31.814Z,25.95
2022-09-12T13:52:03.035Z,25.74
2022-09-12T13:54:31.957Z,25.92
2022-09-12T13:56:59.745Z,25.91
2022-09-12T13:59:27.378Z,26.02
2022-09-12T14:01:55.069Z,26.01
2022-09-12T14:04:55.463Z,25.99
2022-09-12T14:07:25.901Z,25.78
2022-09-12T14:09:56.130Z,25.96
2022-09-12T14:12:26.915Z,25.95
2022-09-12T14:14:54.877Z,26.03
2022-09-12T14:17:29.330Z,26.07
2022-09-12T14:20:01.985Z,26.05
2022-09-12T14:22:30.620Z,26.04
2022-09-12T14:24:59.804Z,26.09
2022-09-12T14:27:30.102Z,25.96
2022-09-12T14:30:03.116Z,25.85
2022-09-12T14:32:30.762Z,25.93
2022-09-12T14:35:24.076Z,25.79
2022-09-12T14:37:52.874Z,25.79
2022-09-12T14:40:22.573Z,25.74
2022-09-12T14:42:52.561Z,25.89
2022-09-12T14:45:28.635Z,25.88
2022-09-12T14:47:56.687Z,25.78
2022-09-12T14:50:29.029Z,25.79
2022-09-12T14:53:07.827Z,25.67
2022-09-12T14:55:43.180Z,25.83
2022-09-12T14:58:23.415Z,25.98
2022-09-12T15:01:01.667Z,25.94
2022-09-12T15:03:33.008Z,25.98
2022-09-12T15:06:03.934Z,25.85
2022-09-12T15:08:32.786Z,25.66
2022-09-12T15:11:00.663Z,25.66
2022-09-12T15:13:32.035Z,25.66
2022-09-12T15:16:00.768Z,25.68
2022-09-12T15:18:29.982Z,25.63
2022-09-12T15:21:02.144Z,25.56
2022-09-12T15:23:39.993Z,25.40
2022-09-12T15:26:08.819Z,25.61
2022-09-12T15:28:36.371Z,25.73
2022-09-12T15:31:08.257Z,25.85
2022-09-12T15:33:35.852Z,25.94
2022-09-12T15:36:03.749Z,25.92
2022-09-12T15:38:31.838Z,25.83
2022-09-12T15:41:00.672Z,25.68
2022-09-12T15:43:28.267Z,25.61
2022-09-12T15:45:55.860Z,25.66
2022-09-12T15:48:23.424Z,25.55
2022-09-12T15:50:50.955Z,25.55
2022-09-12T15:53:18.714Z,25.51
2022-09-12T15:55:46.440Z,25.42
2022-09-12T15:58:15.406Z,25.50
2022-09-12T16:00:42.876Z,25.51
2022-09-12T16:03:21.344Z,25.52
2022-09-12T16:05:48.843Z,25.47
2022-09-12T16:08:16.394Z,25.39
2022-09-12T16:10:44.333Z,25.44
2022-09-12T16:13:11.923Z,25.38
2022-09-12T16:15:40.833Z,25.37
2022-09-12T16:18:08.457Z,25.36
2022-09-12T16:20:36.025Z,25.30
2022-09-12T16:23:03.569Z,25.30
2022-09-12T16:25:31.049Z,25.25
2022-09-12T16:27:58.917Z,25.16
2022-09-12T16:30:26.472Z,25.02
2022-09-12T16:32:55.335Z,25.06
2022-09-12T16:35:22.860Z,24.97
2022-09-12T16:37:50.546Z,24.98
2022-09-12T16:40:19.348Z,24.91
2022-09-12T16:42:47.272Z,24.82
2022-09-12T16:45:14.845Z,24.76
2022-09-12T16:47:42.476Z,24.68
2022-09-12T16:50:11.410Z,24.64
2022-09-12T16:52:38.919Z,24.61
2022-09-12T16:55:07.483Z,24.70
2022-09-12T16:57:35.031Z,24.60
2022-09-12T17:00:03.121Z,24.61
2022-09-12T17:02:30.646Z,24.54
2022-09-12T17:04:58.198Z,24.47
2022-09-12T17:07:27.065Z,24.45
2022-09-12T17:09:54.558Z,24.45
2022-09-12T17:12:22.064Z,24.44
2022-09-12T17:14:49.561Z,24.38
2022-09-12T17:17:17.086Z,24.40
2022-09-12T17:19:44.600Z,24.29
2022-09-12T17:22:12.103Z,24.24
2022-09-12T17:24:41.766Z,24.25
2022-09-12T17:27:09.485Z,24.21
2022-09-12T17:29:38.441Z,24.20
2022-09-12T17:32:06.153Z,24.14
2022-09-12T17:34:33.638Z,24.07
2022-09-12T17:37:01.135Z,24.01
2022-09-12T17:39:28.825Z,23.87
2022-09-12T17:41:58.832Z,23.76
2022-09-12T17:44:29.108Z,23.67
2022-09-12T17:46:56.611Z,23.73
2022-09-12T17:49:24.205Z,23.66
2022-09-12T17:51:52.073Z,23.55
2022-09-12T17:54:20.765Z,23.54
2022-09-12T17:56:51.185Z,23.52
2022-09-12T17:59:21.757Z,23.43
2022-09-12T18:02:07.032Z,23.39
2022-09-12T18:04:34.642Z,23.34
2022-09-12T18:07:02.394Z,23.22
2022-09-12T18:09:30.566Z,23.20
2022-09-12T18:11:58.409Z,23.26
2022-09-12T18:14:28.981Z,23.26
2022-09-12T18:16:57.505Z,23.26
2022-09-12T18:19:25.514Z,23.18
2022-09-12T18:21:53.036Z,23.18
2022-09-12T18:24:20.844Z,23.12
2022-09-12T18:26:48.738Z,23.01
2022-09-12T18:29:17.186Z,23.03
2022-09-12T18:31:46.953Z,23.05
2022-09-12T18:34:15.215Z,23.06
2022-09-12T18:36:44.310Z,23.11
2022-09-12T18:39:12.545Z,23.12
2022-09-12T18:41:40.675Z,23.09
2022-09-12T18:44:08.669Z,22.99
2022-09-12T18:46:36.447Z,22.93
2022-09-12T18:49:05.967Z,22.87
2022-09-12T18:51:35.879Z,22.66
2022-09-12T18:54:06.178Z,22.54
2022-09-12T18:56:35.860Z,22.43
2022-09-12T18:59:05.315Z,22.55
2022-09-12T19:01:35.071Z,22.70
2022-09-12T19:04:04.600Z,22.74
2022-09-12T19:06:35.211Z,22.69
2022-09-12T19:09:07.367Z,22.71
2022-09-12T19:11:37.074Z,22.76
2022-09-12T19:14:05.281Z,22.62
2022-09-12T19:16:33.297Z,22.61
2022-09-12T19:19:02.429Z,22.61
2022-09-12T19:21:32.071Z,22.66
2022-09-12T19:24:02.470Z,22.52
2022-09-12T19:26:30.411Z,22.49
2022-09-12T19:28:57.978Z,22.54
2022-09-12T19:31:26.286Z,22.43
2022-09-12T19:33:53.928Z,22.62
2022-09-12T19:36:43.830Z,22.61
2022-09-12T19:39:11.661Z,22.62
2022-09-12T19:41:39.167Z,22.48
2022-09-12T19:44:06.705Z,22.44
2022-09-12T19:46:34.244Z,22.44
2022-09-12T19:49:01.932Z,22.21
2022-09-12T19:51:29.452Z,22.26
2022-09-12T19:53:57.009Z,22.33
2022-09-12T19:56:25.845Z,22.45
2022-09-12T19:58:56.681Z,22.37
2022-09-12T20:01:28.050Z,22.44
2022-09-12T20:03:56.230Z,22.35
2022-09-12T20:06:24.003Z,22.36
2022-09-12T20:08:51.502Z,22.29
2022-09-12T20:11:21.300Z,22.34
2022-09-12T20:13:50.381Z,22.25
2022-09-12T20:16:22.034Z,22.04
2022-09-12T20:18:54.382Z,22.05
2022-09-12T20:21:24.962Z,22.20
2022-09-12T20:23:52.541Z,22.17
2022-09-12T20:26:20.709Z,22.33
2022-09-12T20:28:49.916Z,22.08
2022-09-12T20:31:17.848Z,22.20
2022-09-12T20:33:49.841Z,22.03
2022-09-12T20:36:21.411Z,21.90
2022-09-12T20:38:50.495Z,22.09
2022-09-12T20:41:19.950Z,22.07
2022-09-12T20:43:52.007Z,22.01
2022-09-12T20:46:22.146Z,22.02
2022-09-12T20:48:50.688Z,21.91
2022-09-12T20:51:18.654Z,22.02
2022-09-12T20:53:46.250Z,21.91
2022-09-12T20:56:14.839Z,22.04
2022-09-12T20:58:44.509Z,22.02
2022-09-12T21:01:16.030Z,22.02
2022-09-12T21:03:45.198Z,21.81
2022-09-12T21:06:14.277Z,21.82
2022-09-12T21:08:41.774Z,21.73
2022-09-12T21:11:10.094Z,21.80
2022-09-12T21:13:37.939Z,21.76
2022-09-12T21:16:07.318Z,21.64
2022-09-12T21:18:37.166Z,21.64
2022-09-12T21:21:05.930Z,21.69
2022-09-12T21:23:34.386Z,21.73
2022-09-12T21:26:02.831Z,21.86
2022-09-12T21:28:30.957Z,21.86
2022-09-12T21:30:58.628Z,21.85
2022-09-12T21:33:26.166Z,21.79
2022-09-12T21:35:55.159Z,21.72
2022-09-12T21:38:22.633Z,21.78
2022-09-12T21:40:50.121Z,21.65
2022-09-12T21:43:17.650Z,21.58
2022-09-12T21:45:45.138Z,21.53
2022-09-12T21:48:12.764Z,21.50
2022-09-12T21:50:40.236Z,21.55
2022-09-12T21:53:09.185Z,21.51
2022-09-12T21:55:36.676Z,21.43
2022-09-12T21:58:04.173Z,21.46
2022-09-12T22:00:31.669Z,21.54
2022-09-12T22:02:59.187Z,21.37
2022-09-12T22:05:29.770Z,21.44
2022-09-12T22:07:57.258Z,21.31
2022-09-12T22:10:26.257Z,21.15
2022-09-12T22:12:53.754Z,21.32
2022-09-12T22:15:40.022Z,21.28
2022-09-12T22:18:08.295Z,21.42
2022-09-12T22:20:35.830Z,21.30
2022-09-12T22:23:24.591Z,21.41
2022-09-12T22:25:56.651Z,21.44
2022-09-12T22:28:25.013Z,21.29
2022-09-12T22:30:54.326Z,21.49
2022-09-12T22:33:21.994Z,21.40
2022-09-12T22:35:49.503Z,21.10
2022-09-12T22:38:17.074Z,21.07
2022-09-12T22:40:44.577Z,21.22
2022-09-12T22:43:13.651Z,21.03
2022-09-12T22:45:42.001Z,21.00
2022-09-12T22:48:09.603Z,21.25
2022-09-12T22:50:37.332Z,21.24
2022-09-12T22:53:05.073Z,21.21
2022-09-12T22:55:32.669Z,20.96
2022-09-12T22:58:00.149Z,20.91
2022-09-12T23:00:29.695Z,21.00
2022-09-12T23:02:58.245Z,20.94
2022-09-12T23:05:25.933Z,20.79
2022-09-12T23:07:54.085Z,20.86
2022-09-12T23:10:21.627Z,21.04
2022-09-12T23:12:49.701Z,21.10
2022-09-12T23:15:17.264Z,21.05
2022-09-12T23:17:46.107Z,20.91
2022-09-12T23:20:13.768Z,21.02
2022-09-12T23:22:41.327Z,21.06
2022-09-12T23:25:09.541Z,21.21
2022-09-12T23:27:37.081Z,21.07
2022-09-12T23:30:05.873Z,21.04
2022-09-12T23:32:33.513Z,21.15
2022-09-12T23:35:03.057Z,21.22
2022-09-12T23:37:30.841Z,21.34
2022-09-12T23:39:58.469Z,21.33
2022-09-12T23:42:26.012Z,21.17
2022-09-12T23:44:53.742Z,21.21
2022-09-12T23:47:21.246Z,21.18
2022-09-12T23:49:48.814Z,21.33
2022-09-12T23:52:17.685Z,21.45
2022-09-12T23:54:45.188Z,21.37
2022-09-12T23:57:12.688Z,21.34
2022-09-12T23:59:40.191Z,21.42
